Time;durP1;ratioP1;P1;durP2;ratioP2;P2;SDS_P1;SDS_P2;PMS_P1;PMS_P2;Temp;Humidity;BMP_temperature;BMP_pressure;BME280_temperature;BME280_humidity;BME280_pressure;Samples;Min_cycle;Max_cycle;Signal;HPM_P1;HPM_P2
2023/03/09 00:01:32;;;;;;;41.28;36.83;;;;;;;14.24;39.60;100298.41;5037665;28;20464;-77
2023/03/09 00:03:59;;;;;;;45.83;38.40;;;;;;;14.29;39.42;100291.44;5034906;28;20386;-77
2023/03/09 00:06:25;;;;;;;44.40;38.90;;;;;;;14.40;39.46;100289.19;5052538;28;20415;-77
2023/03/09 00:08:51;;;;;;;45.37;39.10;;;;;;;14.41;39.09;100288.16;5044354;28;20390;-77
2023/03/09 00:11:17;;;;;;;43.10;38.17;;;;;;;14.41;39.07;100288.16;5046919;28;20378;-77
2023/03/09 00:13:44;;;;;;;42.05;37.55;;;;;;;14.43;39.20;100294.09;5042713;28;20395;-77
2023/03/09 00:16:17;;;;;;;48.03;38.58;;;;;;;14.43;39.08;100284.25;5047623;28;20558;-77
2023/03/09 00:18:43;;;;;;;40.40;36.08;;;;;;;14.34;38.90;100291.63;5035526;28;20436;-77
2023/03/09 00:21:14;;;;;;;45.93;38.97;;;;;;;14.20;39.18;100289.19;5044339;28;20381;-77
2023/03/09 00:23:45;;;;;;;47.03;38.63;;;;;;;14.28;39.24;100292.47;5043092;28;20712;-77
2023/03/09 00:26:11;;;;;;;44.88;37.40;;;;;;;14.33;39.60;100290.00;5046239;28;20388;-77
2023/03/09 00:28:37;;;;;;;44.40;37.77;;;;;;;14.38;39.22;100294.72;5035910;28;20457;-77
2023/03/09 00:31:06;;;;;;;64.30;43.27;;;;;;;14.41;39.17;100293.50;5047005;28;20737;-78
2023/03/09 00:33:31;;;;;;;58.35;42.20;;;;;;;14.49;38.84;100294.09;5043907;28;20879;-77
2023/03/09 00:35:57;;;;;;;70.15;47.65;;;;;;;14.50;38.84;100302.94;5032737;28;20470;-77
2023/03/09 00:38:23;;;;;;;50.25;40.70;;;;;;;14.42;38.74;100290.63;5036005;28;20484;-77
2023/03/09 00:40:49;;;;;;;78.28;49.83;;;;;;;14.33;38.87;100287.34;5048343;28;20469;-77
2023/03/09 00:43:14;;;;;;;81.95;54.80;;;;;;;14.45;39.13;100284.84;5032554;28;20382;-77
2023/03/09 00:45:40;;;;;;;76.27;53.17;;;;;;;14.49;39.27;100283.41;5037565;28;20376;-77
2023/03/09 00:48:05;;;;;;;79.10;53.80;;;;;;;14.43;39.14;100278.09;5051754;28;20396;-77
2023/03/09 00:50:30;;;;;;;38.50;34.50;;;;;;;14.40;38.77;100281.19;5037516;28;20886;-77
2023/03/09 00:52:56;;;;;;;164.10;68.40;;;;;;;14.40;39.35;100268.66;5034459;28;20385;-77
2023/03/09 00:55:22;;;;;;;41.67;32.80;;;;;;;14.50;39.04;100276.25;5045658;28;20473;-77
2023/03/09 00:57:48;;;;;;;156.27;81.30;;;;;;;14.41;39.22;100262.31;5031940;28;20390;-77
2023/03/09 01:00:14;;;;;;;82.50;53.97;;;;;;;14.54;39.24;100254.28;5041913;28;20494;-77
2023/03/09 01:02:39;;;;;;;25.08;22.50;;;;;;;14.54;39.34;100256.94;5047272;28;20440;-77
2023/03/09 01:05:05;;;;;;;27.20;24.50;;;;;;;14.47;39.25;100247.31;5035275;28;20506;-77
2023/03/09 01:07:32;;;;;;;28.45;25.83;;;;;;;14.53;39.07;100257.16;5043649;28;20406;-77
2023/03/09 01:09:58;;;;;;;32.30;29.20;;;;;;;14.49;38.93;100247.94;5043929;28;20392;-77
2023/03/09 01:12:23;;;;;;;32.83;29.67;;;;;;;14.45;38.68;100250.19;5034332;28;20391;-77
2023/03/09 01:14:50;;;;;;;29.90;27.05;;;;;;;14.51;38.35;100238.72;5049565;28;20381;-77
2023/03/09 01:17:16;;;;;;;27.40;25.13;;;;;;;14.44;38.24;100237.91;5049771;28;20884;-77
2023/03/09 01:19:41;;;;;;;29.27;26.40;;;;;;;14.43;38.58;100241.59;5050897;28;20399;-77
2023/03/09 01:22:07;;;;;;;21.57;19.80;;;;;;;14.46;38.11;100235.03;5049288;28;20451;-77
2023/03/09 01:24:32;;;;;;;24.42;21.98;;;;;;;14.43;37.99;100225.59;5049422;28;20449;-77
2023/03/09 01:26:58;;;;;;;30.67;27.87;;;;;;;14.47;38.04;100231.31;5031264;28;20793;-77
2023/03/09 01:29:23;;;;;;;30.70;27.85;;;;;;;14.48;37.87;100225.78;5034495;28;20387;-77
2023/03/09 01:31:49;;;;;;;29.43;26.63;;;;;;;14.40;38.02;100220.66;5037206;28;20394;-77
2023/03/09 01:34:15;;;;;;;27.95;25.58;;;;;;;14.42;38.04;100226.63;5044345;28;20853;-76
2023/03/09 01:36:40;;;;;;;29.90;27.40;;;;;;;14.44;37.86;100215.72;5047211;28;20405;-77
2023/03/09 01:39:06;;;;;;;30.53;27.63;;;;;;;14.44;37.89;100203.25;5046707;28;20386;-77
2023/03/09 01:41:31;;;;;;;32.07;29.10;;;;;;;14.33;37.95;100207.34;5038725;28;20470;-77
2023/03/09 01:43:57;;;;;;;29.97;27.43;;;;;;;14.28;38.09;100214.34;5046697;28;20435;-77
2023/03/09 01:46:25;;;;;;;32.93;29.93;;;;;;;14.18;38.11;100209.41;5035347;28;20398;-77
2023/03/09 01:49:10;;;;;;;32.80;29.77;;;;;;;14.16;38.33;100214.13;5042240;28;20953;-77
2023/03/09 01:51:54;;;;;;;32.90;29.65;;;;;;;14.07;38.84;100210.84;5030757;28;20398;-77
2023/03/09 01:54:28;;;;;;;33.47;30.25;;;;;;;14.08;39.13;100203.66;5030821;28;20398;-77
2023/03/09 01:57:00;;;;;;;32.80;29.73;;;;;;;14.11;39.08;100214.72;5032441;28;20491;-77
2023/03/09 01:59:28;;;;;;;33.25;29.70;;;;;;;14.18;39.02;100213.94;5041962;28;20422;-77
2023/03/09 02:01:53;;;;;;;33.88;30.52;;;;;;;14.11;38.88;100209.41;5049979;28;20383;-77
2023/03/09 02:04:26;;;;;;;34.22;30.88;;;;;;;14.02;38.74;100205.31;5049029;28;20377;-77
2023/03/09 02:06:53;;;;;;;32.03;29.13;;;;;;;13.95;39.03;100205.31;5039766;28;20879;-77
2023/03/09 02:09:27;;;;;;;34.40;30.88;;;;;;;13.98;38.71;100198.75;5028855;28;20584;-78
2023/03/09 02:11:53;;;;;;;33.30;29.95;;;;;;;14.02;38.73;100189.31;5029843;28;20382;-77
2023/03/09 02:14:20;;;;;;;34.05;30.63;;;;;;;14.00;38.67;100203.88;5029105;28;20435;-77
2023/03/09 02:16:45;;;;;;;31.23;28.23;;;;;;;13.98;39.00;100205.94;5034015;28;20406;-77
2023/03/09 02:19:22;;;;;;;34.23;30.67;;;;;;;14.04;39.13;100213.91;5042378;28;20383;-77
2023/03/09 02:21:51;;;;;;;30.17;27.27;;;;;;;14.12;39.11;100213.72;5042222;28;20392;-77
2023/03/09 02:24:34;;;;;;;35.33;31.77;;;;;;;14.12;38.77;100200.38;5033495;28;20410;-77
2023/03/09 02:27:07;;;;;;;38.10;32.92;;;;;;;14.11;38.74;100211.25;5029508;28;20397;-77
2023/03/09 02:29:33;;;;;;;32.85;29.75;;;;;;;14.12;38.43;100215.56;5030543;28;20417;-77
2023/03/09 02:31:58;;;;;;;35.90;32.28;;;;;;;14.10;38.61;100212.28;5030421;28;20420;-77
2023/03/09 02:34:24;;;;;;;34.97;31.37;;;;;;;14.08;38.66;100211.66;5030733;28;20382;-77
2023/03/09 02:36:49;;;;;;;32.42;29.40;;;;;;;14.00;38.66;100210.03;5030879;28;20414;-77
2023/03/09 02:39:29;;;;;;;36.63;32.23;;;;;;;14.00;38.56;100194.03;5035362;28;20739;-77
2023/03/09 02:41:57;;;;;;;31.83;28.92;;;;;;;14.04;38.61;100202.44;5042599;28;20724;-77
2023/03/09 02:44:23;;;;;;;33.25;29.88;;;;;;;14.02;38.89;100194.66;5039334;28;20872;-77
2023/03/09 02:46:49;;;;;;;32.67;29.48;;;;;;;14.02;38.86;100213.28;5037898;28;20401;-77
2023/03/09 02:49:15;;;;;;;32.60;29.63;;;;;;;13.92;39.13;100195.06;5041716;28;20854;-77
2023/03/09 02:51:41;;;;;;;34.05;30.63;;;;;;;13.94;39.08;100197.53;5034061;28;20385;-77
2023/03/09 02:54:06;;;;;;;34.33;31.13;;;;;;;13.86;39.32;100184.41;5033933;28;20448;-77
2023/03/09 02:56:32;;;;;;;35.70;32.07;;;;;;;13.92;39.56;100196.91;5033917;28;21021;-77
2023/03/09 02:58:57;;;;;;;34.20;30.73;;;;;;;13.87;39.44;100196.72;5034679;28;20739;-77
2023/03/09 03:01:23;;;;;;;32.63;29.48;;;;;;;13.83;39.76;100196.28;5040212;28;20405;-77
2023/03/09 03:03:48;;;;;;;34.20;30.97;;;;;;;13.85;39.87;100196.09;5037835;28;20386;-77
2023/03/09 03:06:13;;;;;;;33.78;30.63;;;;;;;13.93;39.91;100198.53;5045854;28;20392;-77
2023/03/09 03:08:39;;;;;;;45.17;40.13;;;;;;;13.99;39.86;100192.41;5052053;28;20388;-77
2023/03/09 03:11:04;;;;;;;37.63;33.63;;;;;;;14.02;40.09;100199.97;5036559;28;20386;-77
2023/03/09 03:13:30;;;;;;;34.87;31.53;;;;;;;13.96;39.96;100187.47;5052575;28;20593;-77
2023/03/09 03:16:00;;;;;;;34.17;30.88;;;;;;;13.91;39.98;100182.75;5051581;28;20482;-77
2023/03/09 03:18:25;;;;;;;33.47;30.27;;;;;;;13.92;39.89;100189.75;5039267;28;20426;-77
2023/03/09 03:20:51;;;;;;;32.27;29.20;;;;;;;13.89;39.76;100179.47;5034456;28;20417;-77
2023/03/09 03:23:16;;;;;;;34.00;31.03;;;;;;;13.84;39.89;100183.78;5047837;28;20881;-77
2023/03/09 03:25:42;;;;;;;33.70;30.50;;;;;;;13.88;40.05;100177.00;5040849;28;20853;-77
2023/03/09 03:28:07;;;;;;;34.50;31.60;;;;;;;13.89;39.83;100176.00;5041501;28;20463;-77
2023/03/09 03:30:33;;;;;;;34.67;31.27;;;;;;;13.97;39.89;100178.44;5047113;28;20451;-77
2023/03/09 03:32:59;;;;;;;33.45;30.35;;;;;;;13.97;39.78;100173.13;5050074;28;20478;-77
2023/03/09 03:35:24;;;;;;;36.10;32.50;;;;;;;14.04;39.98;100178.44;5052540;28;20794;-77
2023/03/09 03:37:50;;;;;;;32.17;29.38;;;;;;;13.97;39.93;100170.44;5044584;28;20402;-77
2023/03/09 03:40:15;;;;;;;31.33;28.53;;;;;;;13.96;40.57;100180.28;5039479;28;20456;-77
2023/03/09 03:42:41;;;;;;;33.47;30.17;;;;;;;13.98;40.20;100180.09;5048252;28;20507;-77
2023/03/09 03:45:07;;;;;;;33.33;30.05;;;;;;;14.05;40.39;100180.91;5034944;28;20473;-77
2023/03/09 03:47:33;;;;;;;32.28;29.38;;;;;;;14.06;40.63;100174.56;5038915;28;20405;-77
2023/03/09 03:49:58;;;;;;;31.43;28.63;;;;;;;14.11;40.34;100176.59;5042804;28;20438;-77
2023/03/09 03:52:24;;;;;;;32.53;29.77;;;;;;;14.17;40.20;100174.94;5046370;28;20392;-77
2023/03/09 03:54:49;;;;;;;32.20;29.43;;;;;;;14.18;40.30;100168.59;5036061;28;20401;-77
2023/03/09 03:57:15;;;;;;;31.60;28.63;;;;;;;14.12;40.41;100162.25;5046839;28;20879;-77
2023/03/09 03:59:40;;;;;;;27.47;25.07;;;;;;;14.13;40.24;100162.06;5039780;28;20489;-77
2023/03/09 04:02:06;;;;;;;24.27;22.47;;;;;;;14.14;40.33;100163.69;5044904;28;20505;-77
2023/03/09 04:04:31;;;;;;;26.23;24.30;;;;;;;14.13;40.46;100164.72;5038412;28;20397;-77
2023/03/09 04:06:57;;;;;;;24.43;22.23;;;;;;;14.14;40.39;100163.69;5034359;28;20386;-77
2023/03/09 04:09:23;;;;;;;30.40;27.83;;;;;;;14.16;40.36;100166.16;5044643;28;20397;-77
2023/03/09 04:11:49;;;;;;;29.08;26.58;;;;;;;14.20;40.30;100166.56;5041760;28;20953;-78
2023/03/09 04:14:15;;;;;;;27.60;25.53;;;;;;;14.18;40.52;100158.75;5033122;28;20701;-77
2023/03/09 04:16:40;;;;;;;29.83;27.23;;;;;;;14.22;40.49;100177.81;5049771;28;20480;-77
2023/03/09 04:19:06;;;;;;;31.13;28.23;;;;;;;14.15;40.65;100161.81;5037150;28;20413;-77
2023/03/09 04:21:31;;;;;;;29.13;26.73;;;;;;;14.17;40.72;100164.28;5048096;28;20848;-77
2023/03/09 04:23:57;;;;;;;34.05;31.40;;;;;;;14.14;40.80;100155.69;5041705;28;20851;-78
2023/03/09 04:26:22;;;;;;;29.87;27.23;;;;;;;14.06;41.10;100166.56;5042794;28;20436;-77
2023/03/09 04:28:48;;;;;;;31.63;28.67;;;;;;;14.19;41.10;100176.41;5042672;28;20448;-77
2023/03/09 04:31:13;;;;;;;29.23;26.90;;;;;;;14.30;40.66;100174.97;5042286;28;20386;-78
2023/03/09 04:33:42;;;;;;;30.53;27.80;;;;;;;14.25;41.07;100158.75;5041974;28;20816;-78
2023/03/09 04:36:09;;;;;;;32.05;29.05;;;;;;;14.34;40.74;100168.97;5041421;28;20413;-77
2023/03/09 04:38:35;;;;;;;28.98;26.70;;;;;;;14.46;40.78;100158.50;5039899;28;20388;-77
2023/03/09 04:41:00;;;;;;;31.23;28.42;;;;;;;14.44;40.50;100155.22;5039936;28;20393;-77
2023/03/09 04:43:26;;;;;;;28.23;25.97;;;;;;;14.51;40.63;100160.53;5041122;28;20388;-77
2023/03/09 04:45:51;;;;;;;28.88;26.38;;;;;;;14.57;40.71;100165.03;5038801;28;20416;-77
2023/03/09 04:48:17;;;;;;;27.37;25.27;;;;;;;14.62;40.76;100165.28;5043186;28;20394;-76
2023/03/09 04:50:44;;;;;;;30.38;27.15;;;;;;;14.59;40.61;100162.19;5041705;28;20454;-77
2023/03/09 04:53:09;;;;;;;29.40;27.00;;;;;;;14.59;40.77;100159.53;5040520;28;20423;-76
2023/03/09 04:55:36;;;;;;;29.90;27.20;;;;;;;14.67;40.52;100170.78;5038633;28;20418;-77
2023/03/09 04:58:03;;;;;;;29.30;26.67;;;;;;;14.76;40.65;100162.53;5032745;28;20398;-77
2023/03/09 05:00:28;;;;;;;30.98;28.00;;;;;;;14.80;40.84;100159.25;5036100;28;20388;-77
2023/03/09 05:02:54;;;;;;;30.05;27.42;;;;;;;14.81;40.53;100150.19;5034786;28;20783;-77
2023/03/09 05:05:19;;;;;;;29.40;27.00;;;;;;;14.76;40.73;100149.22;5046186;28;20469;-76
2023/03/09 05:07:45;;;;;;;29.90;26.73;;;;;;;14.76;40.76;100158.03;5032911;28;20382;-76
2023/03/09 05:10:11;;;;;;;26.73;24.63;;;;;;;14.73;40.75;100145.13;5039521;28;20871;-77
2023/03/09 05:12:37;;;;;;;27.67;25.50;;;;;;;14.77;40.85;100149.00;5037573;28;20382;-76
2023/03/09 05:15:03;;;;;;;26.37;24.33;;;;;;;14.73;41.12;100153.13;5041147;28;20386;-76
2023/03/09 05:17:29;;;;;;;26.63;24.60;;;;;;;14.82;41.40;100156.34;5047214;28;20467;-76
2023/03/09 05:19:54;;;;;;;27.60;25.50;;;;;;;14.69;41.20;100154.56;5037918;28;20483;-77
2023/03/09 05:22:20;;;;;;;27.30;25.10;;;;;;;14.80;41.03;100159.25;5045287;28;20428;-77
2023/03/09 05:24:46;;;;;;;29.52;26.77;;;;;;;14.75;41.08;100148.41;5035972;28;20451;-77
2023/03/09 05:27:14;;;;;;;30.83;28.13;;;;;;;14.79;41.32;100154.13;5033907;28;20396;-77
2023/03/09 05:29:41;;;;;;;29.20;26.45;;;;;;;14.82;41.21;100145.69;5032410;28;20398;-78
2023/03/09 05:32:06;;;;;;;29.35;26.80;;;;;;;14.89;41.01;100149.97;5035537;28;20403;-77
2023/03/09 05:34:33;;;;;;;29.70;27.13;;;;;;;14.83;41.26;100137.47;5044017;28;20453;-77
2023/03/09 05:36:59;;;;;;;29.27;26.55;;;;;;;14.93;41.12;100139.69;5040680;28;20468;-77
2023/03/09 05:39:25;;;;;;;30.83;27.92;;;;;;;14.95;40.93;100147.50;5042519;28;20390;-77
2023/03/09 05:41:50;;;;;;;31.10;28.33;;;;;;;14.90;41.08;100145.44;5031023;28;20768;-77
2023/03/09 05:44:16;;;;;;;30.87;28.07;;;;;;;14.97;41.21;100146.25;5045880;28;20450;-77
2023/03/09 05:46:41;;;;;;;35.30;29.70;;;;;;;15.10;41.15;100146.16;5047337;28;20417;-77
2023/03/09 05:49:07;;;;;;;36.93;29.43;;;;;;;15.11;41.10;100139.00;5043386;28;20450;-76
2023/03/09 05:51:34;;;;;;;31.83;28.88;;;;;;;15.15;40.99;100142.06;5039903;28;20543;-76
2023/03/09 05:53:59;;;;;;;32.30;28.90;;;;;;;15.19;40.98;100146.72;5032443;28;20385;-77
2023/03/09 05:56:25;;;;;;;30.73;27.53;;;;;;;15.31;40.74;100159.41;5030833;28;20398;-78
2023/03/09 05:58:50;;;;;;;32.33;28.88;;;;;;;15.30;41.01;100153.25;5030098;28;20397;-76
2023/03/09 06:01:21;;;;;;;33.15;27.95;;;;;;;15.36;40.64;100151.56;5030586;28;20379;-77
2023/03/09 06:03:48;;;;;;;28.83;26.23;;;;;;;15.45;40.73;100150.28;5029136;28;20390;-76
2023/03/09 06:06:14;;;;;;;27.47;25.03;;;;;;;15.51;40.46;100143.25;5030032;28;20847;-77
2023/03/09 06:08:40;;;;;;;26.07;23.87;;;;;;;15.54;40.45;100142.81;5030541;28;20374;-76
2023/03/09 06:11:05;;;;;;;32.72;27.05;;;;;;;15.61;40.25;100156.94;5030961;28;20388;-77
2023/03/09 06:13:30;;;;;;;27.37;24.90;;;;;;;15.64;40.25;100162.66;5035648;28;20379;-78
2023/03/09 06:15:56;;;;;;;28.02;25.35;;;;;;;15.57;40.33;100148.53;5035796;28;20401;-79
2023/03/09 06:18:22;;;;;;;24.63;22.43;;;;;;;15.54;40.30;100151.66;5036159;28;20378;-78
2023/03/09 06:20:48;;;;;;;25.88;23.67;;;;;;;15.62;40.41;100158.59;5035886;28;20696;-77
2023/03/09 06:23:14;;;;;;;27.02;24.67;;;;;;;15.71;40.24;100164.50;5036434;28;20378;-77
2023/03/09 06:25:39;;;;;;;27.80;25.10;;;;;;;15.85;40.10;100174.88;5037665;28;20518;-78
2023/03/09 06:28:05;;;;;;;28.92;26.33;;;;;;;15.94;40.07;100167.41;5040487;28;20443;-77
2023/03/09 06:30:31;;;;;;;27.98;25.33;;;;;;;15.98;39.94;100175.81;5034937;28;20386;-76
2023/03/09 06:32:56;;;;;;;24.57;22.57;;;;;;;16.00;40.03;100173.72;5035406;28;20409;-77
2023/03/09 06:35:23;;;;;;;25.88;23.48;;;;;;;16.10;39.83;100168.72;5033141;28;20393;-76
2023/03/09 06:37:49;;;;;;;25.40;23.13;;;;;;;16.20;39.86;100179.72;5038991;28;20561;-78
2023/03/09 06:40:15;;;;;;;26.90;24.03;;;;;;;16.22;39.75;100179.50;5043257;28;21040;-77
2023/03/09 06:42:40;;;;;;;27.75;24.98;;;;;;;16.23;39.71;100189.16;5043339;28;20445;-78
2023/03/09 06:45:07;;;;;;;29.15;26.17;;;;;;;16.31;39.61;100188.88;5046493;28;20888;-76
2023/03/09 06:47:33;;;;;;;26.48;23.90;;;;;;;16.36;39.46;100189.03;5042829;28;20797;-77
2023/03/09 06:49:58;;;;;;;25.40;22.97;;;;;;;16.35;39.75;100191.91;5042963;28;20395;-77
2023/03/09 06:52:25;;;;;;;23.80;21.73;;;;;;;16.26;39.89;100186.06;5042980;28;20392;-77
2023/03/09 06:54:51;;;;;;;24.83;22.33;;;;;;;16.21;39.92;100191.25;5044305;28;20722;-78
2023/03/09 06:57:17;;;;;;;24.92;22.75;;;;;;;16.08;39.98;100183.31;5044882;28;20920;-78
2023/03/09 06:59:42;;;;;;;22.87;21.00;;;;;;;15.99;40.13;100186.28;5044464;28;20405;-78
2023/03/09 07:02:12;;;;;;;24.35;22.33;;;;;;;15.93;40.24;100175.66;5045975;28;21053;-76
2023/03/09 07:04:37;;;;;;;24.42;22.45;;;;;;;15.89;40.13;100174.44;5051397;28;20383;-76
2023/03/09 07:07:02;;;;;;;22.08;20.35;;;;;;;15.77;40.45;100180.50;5049946;28;20377;-77
2023/03/09 07:09:31;;;;;;;21.77;19.80;;;;;;;15.81;40.30;100186.22;5043577;28;20378;-77
2023/03/09 07:11:58;;;;;;;21.10;19.48;;;;;;;15.82;40.30;100183.31;5043965;28;20381;-76
2023/03/09 07:14:24;;;;;;;23.42;21.65;;;;;;;15.84;40.48;100175.09;5048497;28;20719;-77
2023/03/09 07:16:56;;;;;;;23.85;22.05;;;;;;;15.83;40.19;100168.94;5054881;28;20857;-79
2023/03/09 07:19:22;;;;;;;24.90;22.67;;;;;;;15.97;40.33;100175.00;5055427;28;20430;-77
2023/03/09 07:21:48;;;;;;;30.17;27.33;;;;;;;16.00;40.29;100179.88;5056085;28;20387;-78
2023/03/09 07:24:14;;;;;;;28.25;25.35;;;;;;;16.07;40.38;100177.16;5054934;28;20395;-77
2023/03/09 07:26:40;;;;;;;26.60;24.35;;;;;;;16.18;40.24;100176.44;5055846;28;20856;-77
2023/03/09 07:29:06;;;;;;;27.33;24.80;;;;;;;16.38;40.08;100172.75;5055321;28;20373;-77
2023/03/09 07:31:31;;;;;;;26.80;24.50;;;;;;;16.58;39.92;100177.91;5055267;28;20376;-78
2023/03/09 07:33:57;;;;;;;28.83;26.40;;;;;;;16.73;39.80;100174.88;5049354;28;20538;-78
2023/03/09 07:36:23;;;;;;;32.30;29.10;;;;;;;16.92;39.53;100173.00;5044277;28;20405;-76
2023/03/09 07:38:50;;;;;;;28.90;26.40;;;;;;;17.02;39.41;100167.94;5036353;28;20387;-77
2023/03/09 07:41:15;;;;;;;31.13;28.45;;;;;;;17.12;39.33;100157.50;5038744;28;20371;-76
2023/03/09 07:43:43;;;;;;;33.05;29.90;;;;;;;17.31;39.21;100168.97;5045222;28;20471;-77
2023/03/09 07:46:13;;;;;;;29.08;26.38;;;;;;;17.39;38.73;100174.03;5054093;28;20433;-76
2023/03/09 07:48:40;;;;;;;24.95;23.00;;;;;;;17.42;38.25;100164.72;5044167;28;20460;-77
2023/03/09 07:51:06;;;;;;;27.60;25.00;;;;;;;17.62;38.44;100169.78;5035818;28;20371;-77
2023/03/09 07:53:37;;;;;;;27.73;25.13;;;;;;;17.73;38.58;100160.94;5040190;28;20461;-78
2023/03/09 07:56:03;;;;;;;20.30;18.80;;;;;;;17.83;38.17;100156.88;5049462;28;20411;-77
2023/03/09 07:58:38;;;;;;;21.33;19.80;;;;;;;17.93;38.13;100157.97;5056187;28;20380;-77
2023/03/09 08:01:06;;;;;;;24.67;22.27;;;;;;;17.97;37.75;100152.97;5054637;28;20430;-76
2023/03/09 08:03:32;;;;;;;16.13;14.77;;;;;;;18.05;37.71;100149.09;5053303;28;20392;-78
2023/03/09 08:06:00;;;;;;;16.00;14.77;;;;;;;18.21;37.26;100144.91;5054119;28;20377;-77
2023/03/09 08:08:27;;;;;;;6.50;5.85;;;;;;;18.34;36.92;100147.34;5054094;28;20372;-76
2023/03/09 08:10:54;;;;;;;4.07;3.33;;;;;;;18.43;36.79;100140.56;5054134;28;20408;-79
2023/03/09 08:13:22;;;;;;;7.32;2.97;;;;;;;18.50;37.02;100140.44;5053749;28;20403;-78
2023/03/09 08:15:48;;;;;;;8.33;7.63;;;;;;;18.84;37.12;100141.41;5060481;28;20453;-77
2023/03/09 08:18:14;;;;;;;10.83;6.63;;;;;;;18.84;37.26;100141.41;5052994;28;20526;-79
2023/03/09 08:20:40;;;;;;;7.45;5.32;;;;;;;18.72;36.42;100129.88;5053634;28;20385;-77
2023/03/09 08:23:06;;;;;;;8.73;5.70;;;;;;;18.86;36.75;100149.25;5053122;28;20383;-78
2023/03/09 08:25:32;;;;;;;10.10;8.60;;;;;;;18.94;35.96;100151.53;5053458;28;20381;-78
2023/03/09 08:27:58;;;;;;;7.65;5.25;;;;;;;18.87;35.45;100132.06;5054422;28;20373;-77
2023/03/09 08:30:24;;;;;;;6.72;5.85;;;;;;;18.83;35.27;100129.03;5053092;28;20469;-78
2023/03/09 08:32:51;;;;;;;7.53;6.95;;;;;;;18.87;35.91;100134.75;5054077;28;20892;-78
2023/03/09 08:35:19;;;;;;;7.05;6.53;;;;;;;18.84;35.66;100125.31;5053994;28;20388;-77
2023/03/09 08:37:45;;;;;;;8.63;7.85;;;;;;;18.92;35.31;100134.84;5069951;28;20467;-78
2023/03/09 08:40:12;;;;;;;8.27;6.50;;;;;;;19.00;35.70;100134.47;5053638;28;20388;-79
2023/03/09 08:42:37;;;;;;;10.10;7.82;;;;;;;18.88;35.10;100134.50;5054489;28;20381;-78
2023/03/09 08:45:04;;;;;;;11.23;8.52;;;;;;;18.87;34.69;100124.84;5053814;28;20450;-78
2023/03/09 08:47:30;;;;;;;9.05;8.50;;;;;;;18.98;34.91;100125.00;5054406;28;20449;-79
2023/03/09 08:49:57;;;;;;;7.17;5.80;;;;;;;18.94;35.36;100124.69;5070996;28;21190;-78
2023/03/09 08:52:23;;;;;;;7.70;6.43;;;;;;;18.86;34.87;100120.50;5053938;28;20392;-77
2023/03/09 08:54:49;;;;;;;9.13;8.43;;;;;;;18.91;34.80;100127.88;5058523;28;20373;-79
2023/03/09 08:57:16;;;;;;;8.90;8.00;;;;;;;19.00;34.66;100126.41;5054993;28;20415;-79
2023/03/09 08:59:41;;;;;;;12.23;9.20;;;;;;;19.17;34.83;100122.97;5054424;28;20438;-78
2023/03/09 09:02:14;;;;;;;9.32;8.43;;;;;;;19.13;34.32;100103.81;5053953;28;20404;-77
2023/03/09 09:04:43;;;;;;;8.80;8.00;;;;;;;19.12;34.95;100106.75;5053172;28;20381;-77
2023/03/09 09:07:10;;;;;;;7.82;7.22;;;;;;;19.14;34.58;100105.47;5054486;28;20385;-79
2023/03/09 09:09:36;;;;;;;9.65;8.80;;;;;;;19.16;34.60;100105.19;5053299;28;20385;-78
2023/03/09 09:12:02;;;;;;;12.43;11.60;;;;;;;19.30;34.33;100093.06;5055236;28;20391;-79
2023/03/09 09:14:27;;;;;;;15.00;13.50;;;;;;;19.33;34.53;100105.22;5055029;28;20467;-76
2023/03/09 09:16:53;;;;;;;16.75;15.38;;;;;;;19.37;34.31;100091.06;5052922;28;20570;-77
2023/03/09 09:19:18;;;;;;;14.00;11.73;;;;;;;19.47;34.86;100099.28;5052438;28;20902;-77
2023/03/09 09:21:44;;;;;;;10.20;9.30;;;;;;;19.53;34.46;100094.81;5052648;28;20475;-80
2023/03/09 09:24:10;;;;;;;11.48;10.57;;;;;;;19.56;34.26;100104.28;5054801;28;20466;-76
2023/03/09 09:26:35;;;;;;;10.13;9.43;;;;;;;19.58;34.06;100097.59;5052286;28;20703;-78
2023/03/09 09:29:01;;;;;;;8.60;8.00;;;;;;;19.63;33.81;100089.59;5052658;28;20403;-78
2023/03/09 09:31:27;;;;;;;10.82;9.80;;;;;;;19.67;33.74;100095.31;5058491;28;20403;-80
2023/03/09 09:33:53;;;;;;;7.97;7.53;;;;;;;19.59;34.12;100084.94;5053892;28;20857;-79
2023/03/09 09:36:20;;;;;;;9.77;8.65;;;;;;;19.67;33.83;100084.53;5052968;28;20415;-77
2023/03/09 09:38:46;;;;;;;9.25;8.63;;;;;;;19.78;33.89;100083.66;5052303;28;20833;-78
2023/03/09 09:41:15;;;;;;;10.25;9.65;;;;;;;19.77;33.70;100071.28;5052463;28;20442;-77
2023/03/09 09:43:42;;;;;;;8.77;8.32;;;;;;;19.82;33.52;100075.91;5052303;28;20880;-77
2023/03/09 09:46:13;;;;;;;14.90;13.75;;;;;;;19.90;33.17;100071.97;5053335;28;20373;-76
2023/03/09 09:48:42;;;;;;;9.23;8.43;;;;;;;19.89;33.69;100059.63;5052516;28;20780;-76
2023/03/09 09:51:50;;;;;;;7.28;6.78;;;;;;;19.90;33.17;100050.47;5051609;28;20506;-76
2023/03/09 09:54:30;;;;;;;8.70;8.05;;;;;;;20.00;33.14;100058.69;5036528;28;20392;-76
2023/03/09 09:57:00;;;;;;;10.52;9.82;;;;;;;20.16;33.15;100063.19;5052942;28;20462;-77
2023/03/09 09:59:31;;;;;;;13.00;12.00;;;;;;;20.27;32.53;100047.19;5052424;28;20377;-78
2023/03/09 10:02:13;;;;;;;13.00;11.80;;;;;;;20.39;32.68;100051.38;5051975;28;20756;-76
2023/03/09 10:04:45;;;;;;;6.22;5.47;;;;;;;20.38;31.92;100036.31;5051867;28;20488;-78
2023/03/09 10:07:20;;;;;;;6.13;5.72;;;;;;;20.57;32.11;100052.94;5051260;28;20384;-77
2023/03/09 10:09:52;;;;;;;14.13;12.82;;;;;;;20.68;31.87;100051.19;5051482;28;20385;-78
2023/03/09 10:12:17;;;;;;;10.05;9.20;;;;;;;20.63;31.91;100040.34;5051440;28;20372;-77
2023/03/09 10:14:59;;;;;;;11.03;10.17;;;;;;;20.66;32.24;100036.38;5053416;28;20398;-76
2023/03/09 10:17:41;;;;;;;9.95;9.25;;;;;;;20.66;32.38;100047.94;5052091;28;20733;-77
2023/03/09 10:20:54;;;;;;;13.18;12.07;;;;;;;20.70;32.22;100049.06;5052590;28;20384;-77
2023/03/09 10:23:27;;;;;;;15.18;13.77;;;;;;;20.70;31.92;100035.59;4982663;28;20395;-78
2023/03/09 10:26:01;;;;;;;15.02;13.38;;;;;;;20.75;32.53;100030.25;4985647;28;20867;-77
2023/03/09 10:28:34;;;;;;;13.27;12.02;;;;;;;20.70;32.20;100034.78;5025719;28;21036;-77
2023/03/09 10:31:12;;;;;;;11.48;10.57;;;;;;;20.81;32.13;100041.88;5050928;28;20483;-78
2023/03/09 10:33:44;;;;;;;10.63;9.73;;;;;;;20.91;32.01;100033.91;5051720;28;20480;-78
2023/03/09 10:36:23;;;;;;;9.75;9.05;;;;;;;20.90;31.83;100020.69;5047662;28;20936;-78
2023/03/09 10:38:50;;;;;;;7.45;6.90;;;;;;;21.00;31.42;100024.28;5046173;28;20396;-78
2023/03/09 10:41:19;;;;;;;7.40;6.60;;;;;;;20.99;31.94;100003.81;5044636;28;20377;-77
2023/03/09 10:43:45;;;;;;;8.60;6.07;;;;;;;21.07;32.32;100005.22;5050196;28;20376;-76
2023/03/09 10:46:16;;;;;;;5.53;5.07;;;;;;;21.03;31.71;99993.34;5050407;28;20793;-77
2023/03/09 10:48:44;;;;;;;6.35;5.85;;;;;;;21.11;31.94;99990.16;5048853;28;20388;-77
2023/03/09 10:51:25;;;;;;;6.27;5.27;;;;;;;21.17;31.59;99991.00;5055837;28;20389;-77
2023/03/09 10:53:52;;;;;;;7.10;6.70;;;;;;;21.14;31.77;99994.22;5030499;28;20739;-77
2023/03/09 10:56:29;;;;;;;11.63;9.15;;;;;;;21.15;31.33;99998.53;5029881;28;20489;-78
2023/03/09 10:59:06;;;;;;;9.45;7.95;;;;;;;21.18;31.11;99998.84;5038699;28;20400;-76
2023/03/09 11:01:36;;;;;;;7.80;7.10;;;;;;;21.24;31.32;99985.41;5051807;28;20400;-78
2023/03/09 11:04:22;;;;;;;7.88;6.85;;;;;;;21.34;31.33;99983.59;5049730;28;20386;-78
2023/03/09 11:06:52;;;;;;;5.40;5.00;;;;;;;21.27;31.23;99971.41;5049502;28;20434;-79
2023/03/09 11:09:30;;;;;;;6.30;5.78;;;;;;;21.30;30.72;99957.41;5034525;28;20378;-78
2023/03/09 11:12:09;;;;;;;9.18;8.13;;;;;;;21.30;30.81;99960.94;5019600;28;20459;-77
2023/03/09 11:14:42;;;;;;;8.43;7.70;;;;;;;21.31;30.98;99948.25;5036163;28;20751;-78